Mattamiscontis Township, Maine
Current Conditions -  °F | °C
As of 12:53 PM on Thursday 29 Jan 2015 (Local Time) from KMLT Reporting Station
Clear Clear  
Wind Chill: 26°   Ceiling: Unl
Heat Index: 26°   Visibility: 10mi
Dew Point:   Wind: 3mph
Humidity: 43%   Direction: 120°ESE
Pressure: 30.21"   Gusts: NA
Location:  45.3335°N, 68.5089°W
Report Text: KMLT 291753Z AUTO 12003KT 10SM CLR M03/M14 A3021 RMK AO2 SLP242 60000 T10331144 11028 21194 57019
Loading
Personal Weather Stations






























Interactive Weather Map New forecast layout! Learn more

10-Day Weather Forecast

Advertisements
Track Severe Weather on mobile